createdAt,value
2018-07-28T00:00:08.482Z,46.35
2018-07-28T00:02:37.882Z,46.84
2018-07-28T00:05:07.850Z,46.52
2018-07-28T00:07:37.001Z,46.80
2018-07-28T00:10:09.851Z,46.17
2018-07-28T00:12:38.970Z,46.20
2018-07-28T00:15:10.078Z,46.23
2018-07-28T00:17:39.899Z,46.39
2018-07-28T00:20:10.672Z,47.02
2018-07-28T00:22:39.893Z,46.83
2018-07-28T00:25:10.448Z,46.49
2018-07-28T00:27:39.672Z,46.88
2018-07-28T00:30:10.782Z,46.59
2018-07-28T00:32:39.993Z,46.93
2018-07-28T00:35:09.178Z,46.90
2018-07-28T00:37:38.386Z,46.77
2018-07-28T00:40:08.194Z,47.02
2018-07-28T00:42:37.711Z,47.14
2018-07-28T00:45:07.490Z,47.24
2018-07-28T00:47:36.626Z,47.74
2018-07-28T00:50:06.778Z,47.66
2018-07-28T00:52:36.072Z,47.93
2018-07-28T00:55:06.086Z,47.83
2018-07-28T00:57:35.352Z,47.49
2018-07-28T01:00:05.633Z,47.01
2018-07-28T01:02:34.826Z,47.38
2018-07-28T01:05:04.134Z,47.49
2018-07-28T01:07:33.220Z,47.12
2018-07-28T01:10:02.396Z,47.16
2018-07-28T01:12:31.498Z,46.79
2018-07-28T01:15:00.773Z,46.92
2018-07-28T01:17:29.926Z,46.62
2018-07-28T01:19:59.120Z,46.94
2018-07-28T01:22:28.303Z,46.67
2018-07-28T01:24:57.402Z,47.01
2018-07-28T01:27:26.494Z,46.84
2018-07-28T01:29:55.702Z,46.43
2018-07-28T01:32:24.881Z,46.07
2018-07-28T01:34:53.947Z,45.91
2018-07-28T01:37:23.100Z,46.15
2018-07-28T01:39:52.278Z,45.95
2018-07-28T01:42:21.354Z,46.49
2018-07-28T01:44:50.568Z,45.93
2018-07-28T01:47:19.665Z,46.28
2018-07-28T01:49:48.895Z,46.30
2018-07-28T01:52:18.027Z,46.84
2018-07-28T01:54:47.147Z,46.31
2018-07-28T01:57:16.359Z,46.41
2018-07-28T01:59:45.473Z,46.54
2018-07-28T02:02:14.750Z,46.02
2018-07-28T02:04:43.873Z,45.91
2018-07-28T02:07:13.034Z,46.23
2018-07-28T02:09:42.155Z,45.85
2018-07-28T02:12:11.341Z,46.11
2018-07-28T02:14:40.463Z,45.83
2018-07-28T02:17:09.579Z,45.46
2018-07-28T02:19:38.751Z,45.47
2018-07-28T02:22:08.131Z,45.33
2018-07-28T02:24:37.123Z,45.42
2018-07-28T02:27:06.349Z,44.75
2018-07-28T02:29:35.483Z,45.07
2018-07-28T02:32:04.530Z,45.21
2018-07-28T02:34:33.713Z,45.00
2018-07-28T02:37:02.911Z,45.13
2018-07-28T02:39:32.000Z,45.15
2018-07-28T02:42:01.192Z,45.61
2018-07-28T02:44:30.408Z,45.69
2018-07-28T02:46:59.591Z,45.57
2018-07-28T02:49:28.791Z,45.95
2018-07-28T02:51:57.867Z,45.27
2018-07-28T02:54:27.191Z,45.27
2018-07-28T02:56:56.754Z,45.66
2018-07-28T02:59:26.139Z,45.89
2018-07-28T03:01:55.636Z,45.84
2018-07-28T03:04:25.005Z,45.38
2018-07-28T03:06:54.302Z,45.63
2018-07-28T03:09:23.629Z,45.62
2018-07-28T03:11:53.024Z,45.97
2018-07-28T03:14:22.399Z,45.82
2018-07-28T03:16:51.803Z,45.93
2018-07-28T03:19:21.181Z,45.72
2018-07-28T03:21:50.517Z,45.59
2018-07-28T03:24:19.941Z,45.40
2018-07-28T03:26:49.145Z,46.00
2018-07-28T03:29:18.370Z,45.70
2018-07-28T03:31:47.635Z,46.09
2018-07-28T03:34:16.975Z,45.95
2018-07-28T03:36:46.321Z,45.46
2018-07-28T03:39:15.563Z,45.81
2018-07-28T03:41:44.940Z,45.47
2018-07-28T03:44:14.193Z,45.59
2018-07-28T03:46:43.539Z,45.15
2018-07-28T03:49:12.867Z,45.28
2018-07-28T03:51:42.285Z,45.40
2018-07-28T03:54:11.530Z,45.48
2018-07-28T03:56:40.760Z,44.92
2018-07-28T03:59:10.319Z,44.73
2018-07-28T04:01:39.683Z,44.68
2018-07-28T04:04:09.273Z,44.81
2018-07-28T04:06:38.763Z,44.73
2018-07-28T04:09:09.070Z,44.56
2018-07-28T04:11:38.303Z,44.68
2018-07-28T04:14:07.527Z,44.62
2018-07-28T04:16:36.929Z,45.20
2018-07-28T04:19:06.263Z,45.29
2018-07-28T04:21:35.487Z,45.02
2018-07-28T04:24:04.825Z,44.89
2018-07-28T04:26:34.099Z,44.60
2018-07-28T04:29:03.318Z,44.53
2018-07-28T04:31:32.591Z,44.82
2018-07-28T04:34:01.829Z,44.59
2018-07-28T04:36:31.062Z,44.48
2018-07-28T04:39:00.257Z,44.69
2018-07-28T04:41:29.611Z,44.48
2018-07-28T04:43:58.909Z,44.13
2018-07-28T04:46:28.409Z,44.55
2018-07-28T04:48:57.695Z,44.10
2018-07-28T04:51:26.909Z,44.21
2018-07-28T04:53:56.309Z,44.01
2018-07-28T04:56:25.843Z,44.36
2018-07-28T04:58:55.125Z,44.67
2018-07-28T05:01:24.415Z,44.72
2018-07-28T05:03:53.755Z,45.09
2018-07-28T05:06:22.947Z,44.73
2018-07-28T05:08:52.421Z,45.54
2018-07-28T05:11:21.540Z,45.66
2018-07-28T05:13:50.632Z,45.76
2018-07-28T05:16:19.738Z,45.73
2018-07-28T05:18:49.762Z,45.72
2018-07-28T05:21:18.760Z,45.68
2018-07-28T05:23:47.879Z,46.03
2018-07-28T05:26:17.135Z,46.18
2018-07-28T05:28:46.251Z,45.93
2018-07-28T05:31:15.322Z,46.22
2018-07-28T05:33:44.420Z,45.79
2018-07-28T05:36:13.573Z,45.78
2018-07-28T05:38:42.723Z,46.24
2018-07-28T05:41:11.780Z,46.35
2018-07-28T05:43:41.010Z,45.81
2018-07-28T05:46:10.088Z,45.76
2018-07-28T05:48:39.205Z,46.29
2018-07-28T05:51:08.285Z,46.14
2018-07-28T05:53:39.232Z,45.75
2018-07-28T05:56:10.502Z,45.82
2018-07-28T05:58:40.232Z,46.06
2018-07-28T06:01:09.324Z,45.56
2018-07-28T06:03:38.603Z,45.84
2018-07-28T06:06:07.738Z,46.31
2018-07-28T06:08:36.953Z,46.43
2018-07-28T06:11:06.138Z,46.55
2018-07-28T06:13:35.310Z,46.61
2018-07-28T06:16:04.420Z,46.45
2018-07-28T06:18:33.634Z,46.73
2018-07-28T06:21:02.860Z,46.91
2018-07-28T06:23:32.103Z,47.20
2018-07-28T06:26:01.371Z,47.53
2018-07-28T06:28:30.859Z,47.66
2018-07-28T06:31:00.144Z,48.33
2018-07-28T06:33:29.304Z,47.96
2018-07-28T06:35:58.450Z,47.99
2018-07-28T06:38:27.642Z,47.80
2018-07-28T06:40:56.828Z,48.05
2018-07-28T06:43:26.012Z,48.18
2018-07-28T06:45:55.194Z,48.37
2018-07-28T06:48:24.315Z,48.27
2018-07-28T06:50:53.725Z,48.11
2018-07-28T06:53:22.894Z,48.23
2018-07-28T06:55:52.130Z,48.22
2018-07-28T06:58:21.578Z,48.55
2018-07-28T07:00:50.681Z,48.38
2018-07-28T07:03:19.814Z,47.96
2018-07-28T07:05:49.012Z,48.07
2018-07-28T07:08:18.176Z,47.92
2018-07-28T07:10:47.282Z,47.90
2018-07-28T07:13:16.400Z,47.78
2018-07-28T07:15:45.508Z,47.47
2018-07-28T07:18:14.604Z,47.71
2018-07-28T07:20:43.804Z,47.53
2018-07-28T07:23:13.010Z,47.78
2018-07-28T07:25:42.209Z,47.25
2018-07-28T07:28:11.354Z,47.41
2018-07-28T07:30:40.428Z,47.70
2018-07-28T07:33:09.584Z,47.53
2018-07-28T07:35:38.799Z,47.77
2018-07-28T07:38:07.935Z,48.42
2018-07-28T07:40:37.394Z,48.47
2018-07-28T07:43:06.776Z,48.26
2018-07-28T07:45:35.896Z,48.66
2018-07-28T07:48:05.083Z,48.61
2018-07-28T07:50:34.500Z,48.99
2018-07-28T07:53:03.676Z,49.16
2018-07-28T07:55:32.880Z,49.09
2018-07-28T07:58:02.510Z,49.07
2018-07-28T08:00:31.634Z,48.85
2018-07-28T08:03:00.754Z,48.74
2018-07-28T08:05:29.858Z,48.82
2018-07-28T08:07:59.180Z,48.47
2018-07-28T08:10:28.368Z,48.51
2018-07-28T08:12:57.588Z,47.97
2018-07-28T08:15:26.762Z,47.50
2018-07-28T08:17:55.991Z,47.21
2018-07-28T08:20:25.175Z,47.17
2018-07-28T08:22:54.354Z,47.00
2018-07-28T08:25:23.676Z,47.11
2018-07-28T08:27:52.825Z,46.78
2018-07-28T08:30:21.946Z,46.78
2018-07-28T08:32:51.164Z,46.74
2018-07-28T08:35:20.329Z,46.01
2018-07-28T08:37:49.516Z,45.84
2018-07-28T08:40:18.955Z,45.66
2018-07-28T08:42:48.234Z,45.99
2018-07-28T08:45:17.707Z,45.80
2018-07-28T08:47:46.866Z,45.88
2018-07-28T08:50:16.027Z,46.18
2018-07-28T08:52:45.237Z,45.74
2018-07-28T08:55:14.395Z,45.19
2018-07-28T08:57:43.532Z,45.10
2018-07-28T09:00:12.754Z,45.58
2018-07-28T09:02:41.983Z,45.04
2018-07-28T09:05:11.106Z,44.84
2018-07-28T09:07:40.302Z,44.66
2018-07-28T09:10:09.444Z,45.17
2018-07-28T09:12:38.642Z,44.94
2018-07-28T09:15:08.902Z,44.77
2018-07-28T09:17:38.104Z,44.52
2018-07-28T09:20:08.143Z,44.64
2018-07-28T09:22:37.555Z,44.15
2018-07-28T09:25:07.431Z,44.49
2018-07-28T09:27:36.658Z,43.98
2018-07-28T09:30:06.613Z,43.65
2018-07-28T09:32:35.800Z,44.00
2018-07-28T09:35:05.071Z,44.34
2018-07-28T09:37:34.207Z,43.97
2018-07-28T09:40:03.469Z,44.23
2018-07-28T09:42:32.601Z,43.94
2018-07-28T09:45:01.826Z,44.32
2018-07-28T09:47:31.310Z,44.13
2018-07-28T09:50:00.528Z,44.77
2018-07-28T09:52:29.861Z,44.17
2018-07-28T09:55:00.047Z,44.32
2018-07-28T09:57:29.240Z,44.86
2018-07-28T09:59:58.526Z,45.18
2018-07-28T10:02:28.037Z,45.07
2018-07-28T10:04:57.238Z,45.03
2018-07-28T10:07:26.428Z,45.23
2018-07-28T10:09:55.637Z,45.21
2018-07-28T10:12:24.750Z,45.44
2018-07-28T10:14:55.277Z,45.74
2018-07-28T10:17:24.962Z,45.63
2018-07-28T10:19:54.118Z,45.55
2018-07-28T10:22:23.387Z,45.46
2018-07-28T10:24:52.531Z,45.16
2018-07-28T10:27:21.859Z,45.33
2018-07-28T10:29:51.067Z,45.24
2018-07-28T10:32:20.235Z,45.59
2018-07-28T10:34:49.439Z,45.54
2018-07-28T10:37:18.740Z,45.66
2018-07-28T10:39:48.155Z,47.80
2018-07-28T10:42:17.286Z,48.89
2018-07-28T10:44:46.358Z,48.77
2018-07-28T10:47:15.483Z,48.65
2018-07-28T10:49:44.588Z,48.30
2018-07-28T10:52:13.699Z,48.43
2018-07-28T10:54:42.856Z,48.21
2018-07-28T10:57:12.010Z,48.00
2018-07-28T10:59:41.215Z,47.91
2018-07-28T11:02:10.375Z,48.22
2018-07-28T11:04:39.506Z,47.89
2018-07-28T11:07:08.586Z,48.08
2018-07-28T11:09:37.691Z,47.90
2018-07-28T11:12:06.806Z,47.58
2018-07-28T11:14:35.879Z,46.64
2018-07-28T11:17:05.532Z,46.63
2018-07-28T11:19:34.706Z,46.08
2018-07-28T11:22:03.882Z,45.79
2018-07-28T11:24:33.095Z,45.67
2018-07-28T11:27:02.276Z,45.31
2018-07-28T11:29:31.459Z,45.46
2018-07-28T11:33:11.664Z,45.36
2018-07-28T11:35:52.243Z,45.07
2018-07-28T11:38:32.530Z,44.39
2018-07-28T11:41:13.027Z,44.39
2018-07-28T11:43:53.563Z,43.85
2018-07-28T11:46:22.871Z,44.23
2018-07-28T11:48:52.215Z,43.77
2018-07-28T11:51:21.302Z,43.55
2018-07-28T11:53:50.627Z,43.65
2018-07-28T11:56:19.791Z,43.40
2018-07-28T11:58:48.876Z,43.53
2018-07-28T12:01:17.991Z,42.92
2018-07-28T12:03:47.098Z,42.71
2018-07-28T12:06:16.369Z,42.68
2018-07-28T12:08:45.462Z,41.76
2018-07-28T12:11:14.694Z,42.44
2018-07-28T12:13:43.931Z,42.10
2018-07-28T12:16:13.087Z,41.95
2018-07-28T12:18:42.194Z,41.76
2018-07-28T12:21:11.299Z,41.96
2018-07-28T12:23:40.393Z,41.22
2018-07-28T12:26:09.488Z,41.38
2018-07-28T12:28:38.515Z,41.27
2018-07-28T12:31:07.677Z,41.10
2018-07-28T12:33:36.735Z,40.67
2018-07-28T12:36:06.447Z,41.02
2018-07-28T12:38:35.583Z,40.49
2018-07-28T12:41:04.907Z,41.15
2018-07-28T12:43:34.243Z,40.27
2018-07-28T12:46:03.314Z,40.04
2018-07-28T12:48:32.607Z,39.92
2018-07-28T12:51:01.880Z,39.89
2018-07-28T12:53:30.962Z,39.79
2018-07-28T12:56:00.079Z,39.47
2018-07-28T12:58:29.194Z,39.59
2018-07-28T13:00:58.339Z,39.14
2018-07-28T13:03:27.595Z,39.08
2018-07-28T13:05:56.733Z,38.95
2018-07-28T13:08:25.951Z,39.27
2018-07-28T13:10:55.240Z,38.54
2018-07-28T13:13:24.541Z,38.25
2018-07-28T13:15:53.733Z,38.45
2018-07-28T13:18:22.839Z,38.12
2018-07-28T13:20:51.940Z,38.34
2018-07-28T13:23:21.141Z,38.47
2018-07-28T13:25:50.203Z,38.71
2018-07-28T13:28:19.295Z,38.61
2018-07-28T13:30:48.428Z,37.91
2018-07-28T13:33:17.531Z,38.47
2018-07-28T13:35:46.719Z,38.27
2018-07-28T13:38:16.050Z,38.06
2018-07-28T13:40:45.298Z,38.26
2018-07-28T13:43:14.485Z,37.78
2018-07-28T13:45:43.548Z,37.91
2018-07-28T13:48:12.851Z,37.60
2018-07-28T13:50:41.987Z,38.08
2018-07-28T13:53:11.187Z,37.92
2018-07-28T13:55:40.180Z,37.77
2018-07-28T13:58:09.267Z,37.73
2018-07-28T14:00:38.486Z,37.29
2018-07-28T14:03:07.688Z,38.13
2018-07-28T14:05:36.779Z,37.66
2018-07-28T14:08:05.905Z,37.40
2018-07-28T14:10:35.003Z,37.34
2018-07-28T14:13:04.151Z,37.42
2018-07-28T14:15:33.239Z,37.57
2018-07-28T14:18:02.409Z,36.87
2018-07-28T14:20:31.555Z,36.63
2018-07-28T14:23:00.727Z,36.45
2018-07-28T14:25:30.052Z,36.75
2018-07-28T14:27:59.243Z,36.58
2018-07-28T14:30:28.315Z,37.13
2018-07-28T14:32:57.385Z,36.58
2018-07-28T14:35:26.456Z,36.48
2018-07-28T14:37:55.647Z,36.24
2018-07-28T14:40:24.717Z,36.45
2018-07-28T14:42:53.907Z,36.30
2018-07-28T14:45:23.022Z,35.84
2018-07-28T14:47:52.180Z,36.53
2018-07-28T14:50:21.427Z,36.44
2018-07-28T14:52:50.628Z,36.15
2018-07-28T14:55:19.776Z,36.78
2018-07-28T14:57:49.006Z,36.57
2018-07-28T15:00:18.839Z,36.20
2018-07-28T15:02:47.974Z,36.64
2018-07-28T15:05:17.374Z,35.83
2018-07-28T15:07:46.530Z,35.85
2018-07-28T15:10:15.612Z,35.53
2018-07-28T15:12:44.689Z,36.35
2018-07-28T15:15:13.764Z,35.57
2018-07-28T15:17:42.918Z,35.42
2018-07-28T15:20:12.042Z,35.02
2018-07-28T15:22:41.160Z,34.49
2018-07-28T15:25:10.243Z,34.61
2018-07-28T15:27:39.473Z,35.34
2018-07-28T15:30:09.413Z,35.01
2018-07-28T15:32:38.471Z,34.68
2018-07-28T15:35:07.594Z,35.17
2018-07-28T15:37:36.825Z,34.39
2018-07-28T15:40:05.911Z,35.09
2018-07-28T15:42:35.020Z,34.87
2018-07-28T15:45:04.669Z,35.01
2018-07-28T15:47:33.795Z,34.56
2018-07-28T15:50:02.979Z,34.70
2018-07-28T15:52:32.088Z,35.17
2018-07-28T15:55:01.271Z,34.85
2018-07-28T15:57:30.491Z,34.18
2018-07-28T15:59:59.615Z,34.39
2018-07-28T16:02:28.683Z,34.04
2018-07-28T16:04:58.050Z,34.45
2018-07-28T16:07:27.161Z,34.42
2018-07-28T16:09:56.251Z,34.16
2018-07-28T16:12:25.443Z,34.41
2018-07-28T16:14:54.516Z,34.47
2018-07-28T16:17:23.617Z,34.85
2018-07-28T16:19:52.708Z,34.42
2018-07-28T16:22:21.851Z,34.61
2018-07-28T16:24:50.963Z,34.77
2018-07-28T16:27:20.138Z,34.61
2018-07-28T16:29:49.237Z,34.42
2018-07-28T16:32:18.331Z,34.98
2018-07-28T16:34:47.423Z,34.67
2018-07-28T16:37:16.522Z,34.71
2018-07-28T16:39:51.060Z,34.33
2018-07-28T16:42:20.229Z,34.75
2018-07-28T16:44:49.395Z,35.03
2018-07-28T16:47:18.615Z,34.36
2018-07-28T16:49:47.755Z,34.91
2018-07-28T16:52:16.886Z,34.70
2018-07-28T16:54:46.236Z,34.25
2018-07-28T16:57:15.435Z,34.74
2018-07-28T16:59:44.595Z,35.21
2018-07-28T17:02:13.674Z,34.74
2018-07-28T17:04:42.821Z,34.11
2018-07-28T17:07:11.990Z,35.28
2018-07-28T17:09:41.211Z,34.39
2018-07-28T17:12:10.304Z,34.56
2018-07-28T17:14:39.356Z,34.28
2018-07-28T17:17:08.475Z,34.22
2018-07-28T17:19:37.612Z,34.56
2018-07-28T17:22:06.682Z,34.84
2018-07-28T17:24:35.774Z,34.56
2018-07-28T17:27:04.904Z,34.60
2018-07-28T17:29:34.078Z,34.42
2018-07-28T17:32:03.156Z,34.44
2018-07-28T17:34:32.263Z,34.17
2018-07-28T17:37:01.480Z,34.43
2018-07-28T17:39:30.579Z,33.50
2018-07-28T17:41:59.771Z,34.54
2018-07-28T17:44:28.839Z,34.12
2018-07-28T17:46:57.926Z,34.35
2018-07-28T17:49:27.076Z,34.19
2018-07-28T17:51:56.147Z,34.41
2018-07-28T17:54:25.213Z,34.33
2018-07-28T17:56:54.292Z,33.94
2018-07-28T17:59:23.375Z,34.46
2018-07-28T18:01:52.545Z,34.18
2018-07-28T18:04:21.629Z,34.25
2018-07-28T18:06:50.771Z,34.63
2018-07-28T18:09:19.875Z,34.80
2018-07-28T18:11:49.288Z,34.70
2018-07-28T18:14:18.441Z,34.38
2018-07-28T18:16:47.600Z,34.23
2018-07-28T18:19:16.704Z,34.15
2018-07-28T18:21:45.754Z,34.55
2018-07-28T18:24:14.843Z,34.89
2018-07-28T18:26:43.962Z,34.51
2018-07-28T18:29:13.263Z,34.40
2018-07-28T18:31:42.332Z,35.22
2018-07-28T18:34:11.660Z,34.69
2018-07-28T18:36:40.766Z,34.69
2018-07-28T18:39:11.190Z,34.85
2018-07-28T18:41:40.462Z,34.66
2018-07-28T18:44:10.248Z,34.74
2018-07-28T18:46:39.446Z,34.79
2018-07-28T18:49:08.579Z,34.63
2018-07-28T18:51:37.668Z,35.06
2018-07-28T18:54:06.822Z,34.59
2018-07-28T18:56:35.886Z,34.46
2018-07-28T18:59:05.224Z,34.92
2018-07-28T19:01:34.367Z,34.88
2018-07-28T19:04:03.436Z,34.67
2018-07-28T19:06:32.530Z,34.81
2018-07-28T19:09:07.088Z,34.47
2018-07-28T19:11:36.208Z,34.29
2018-07-28T19:14:40.172Z,34.19
2018-07-28T19:17:09.247Z,34.45
2018-07-28T19:19:38.398Z,34.79
2018-07-28T19:22:12.972Z,34.48
2018-07-28T19:24:42.056Z,33.92
2018-07-28T19:27:11.136Z,34.20
2018-07-28T19:29:42.597Z,34.18
2018-07-28T19:32:11.804Z,34.30
2018-07-28T19:34:41.425Z,34.54
2018-07-28T19:37:15.879Z,34.36
2018-07-28T19:39:44.936Z,34.32
2018-07-28T19:42:19.339Z,33.95
2018-07-28T19:44:48.527Z,34.14
2018-07-28T19:47:17.741Z,34.39
2018-07-28T19:49:46.836Z,34.03
2018-07-28T19:52:16.024Z,33.96
2018-07-28T19:54:45.460Z,33.99
2018-07-28T19:57:14.701Z,34.43
2018-07-28T19:59:43.795Z,33.96
2018-07-28T20:02:12.895Z,34.21
2018-07-28T20:04:42.163Z,34.06
2018-07-28T20:07:11.306Z,34.15
2018-07-28T20:09:40.381Z,34.01
2018-07-28T20:12:09.486Z,34.19
2018-07-28T20:14:38.580Z,34.19
2018-07-28T20:17:07.736Z,33.51
2018-07-28T20:19:36.910Z,33.93
2018-07-28T20:22:06.282Z,33.56
2018-07-28T20:24:35.382Z,33.62
2018-07-28T20:27:04.476Z,34.36
2018-07-28T20:29:33.601Z,33.51
2018-07-28T20:32:02.986Z,33.63
2018-07-28T20:34:32.296Z,33.41
2018-07-28T20:37:01.492Z,33.54
2018-07-28T20:39:30.567Z,33.59
2018-07-28T20:42:01.424Z,33.73
2018-07-28T20:44:30.660Z,33.82
2018-07-28T20:46:59.820Z,33.44
2018-07-28T20:49:28.916Z,33.37
2018-07-28T20:51:58.002Z,33.66
2018-07-28T20:54:27.220Z,33.35
2018-07-28T20:56:56.315Z,33.28
2018-07-28T20:59:25.396Z,33.04
2018-07-28T21:01:54.674Z,33.46
2018-07-28T21:04:23.812Z,33.66
2018-07-28T21:06:53.434Z,33.59
2018-07-28T21:09:22.528Z,33.62
2018-07-28T21:11:51.614Z,33.24
2018-07-28T21:14:20.680Z,33.57
2018-07-28T21:16:49.931Z,33.21
2018-07-28T21:19:19.060Z,33.37
2018-07-28T21:21:48.171Z,33.71
2018-07-28T21:24:17.423Z,33.19
2018-07-28T21:26:46.510Z,32.74
2018-07-28T21:29:15.703Z,33.73
2018-07-28T21:31:44.796Z,33.15
2018-07-28T21:34:13.972Z,33.16
2018-07-28T21:36:43.077Z,32.83
2018-07-28T21:39:12.206Z,33.28
2018-07-28T21:41:41.296Z,33.18
2018-07-28T21:44:10.444Z,32.91
2018-07-28T21:46:39.559Z,33.26
2018-07-28T21:49:08.671Z,33.25
2018-07-28T21:51:37.769Z,33.32
2018-07-28T21:54:06.954Z,33.59
2018-07-28T21:56:36.055Z,33.15
2018-07-28T21:59:05.231Z,33.27
2018-07-28T22:01:34.325Z,33.45
2018-07-28T22:04:04.007Z,33.21
2018-07-28T22:06:34.414Z,33.81
2018-07-28T22:09:03.615Z,33.57
2018-07-28T22:11:32.756Z,33.83
2018-07-28T22:14:02.619Z,33.21
2018-07-28T22:16:31.883Z,33.29
2018-07-28T22:19:01.110Z,33.71
2018-07-28T22:21:30.287Z,34.32
2018-07-28T22:23:59.524Z,33.76
2018-07-28T22:26:28.730Z,33.82
2018-07-28T22:28:57.854Z,33.74
2018-07-28T22:31:27.079Z,34.35
2018-07-28T22:33:56.225Z,33.85
2018-07-28T22:36:25.303Z,34.68
2018-07-28T22:38:54.471Z,34.13
2018-07-28T22:41:23.642Z,34.14
2018-07-28T22:43:53.003Z,34.08
2018-07-28T22:46:22.134Z,33.90
2018-07-28T22:48:51.339Z,34.07
2018-07-28T22:51:20.579Z,33.88
2018-07-28T22:53:49.730Z,34.17
2018-07-28T22:56:18.902Z,34.17
2018-07-28T22:58:48.027Z,34.37
2018-07-28T23:01:17.307Z,34.24
2018-07-28T23:03:46.611Z,34.12
2018-07-28T23:06:15.686Z,34.17
2018-07-28T23:08:44.810Z,34.06
2018-07-28T23:11:13.977Z,34.16
2018-07-28T23:13:43.046Z,34.46
2018-07-28T23:16:12.215Z,34.59
2018-07-28T23:18:41.425Z,34.01
2018-07-28T23:21:10.574Z,34.33
2018-07-28T23:23:39.703Z,34.21
2018-07-28T23:26:08.909Z,34.49
2018-07-28T23:28:38.054Z,34.48
2018-07-28T23:31:07.199Z,34.72
2018-07-28T23:33:36.255Z,34.77
2018-07-28T23:36:05.474Z,34.42
2018-07-28T23:38:34.684Z,34.73
2018-07-28T23:41:03.866Z,34.89
2018-07-28T23:43:32.946Z,34.66
2018-07-28T23:46:02.105Z,34.65
2018-07-28T23:48:31.312Z,34.99
2018-07-28T23:51:00.655Z,35.12
2018-07-28T23:53:29.754Z,34.58
2018-07-28T23:55:58.863Z,35.03
2018-07-28T23:58:27.935Z,35.11
